createdAt,value
2019-01-29T00:02:12.790Z,4.22
2019-01-29T00:05:02.638Z,4.24
2019-01-29T00:07:52.103Z,4.26
2019-01-29T00:10:42.003Z,4.25
2019-01-29T00:13:32.961Z,4.20
2019-01-29T00:16:22.946Z,4.17
2019-01-29T00:19:12.506Z,4.08
2019-01-29T00:22:02.280Z,4.11
2019-01-29T00:24:52.138Z,4.13
2019-01-29T00:27:41.970Z,4.12
2019-01-29T00:30:31.852Z,4.18
2019-01-29T00:33:21.740Z,4.11
2019-01-29T00:36:11.558Z,4.12
2019-01-29T00:39:01.879Z,4.11
2019-01-29T00:41:53.524Z,4.15
2019-01-29T00:44:43.236Z,4.14
2019-01-29T00:47:33.357Z,4.11
2019-01-29T00:50:22.809Z,4.12
2019-01-29T00:53:12.955Z,4.19
2019-01-29T00:56:03.215Z,4.08
2019-01-29T00:58:52.987Z,4.12
2019-01-29T01:01:43.300Z,4.01
2019-01-29T01:04:33.611Z,4.02
2019-01-29T01:07:23.621Z,3.96
2019-01-29T01:10:16.129Z,3.92
2019-01-29T01:13:05.753Z,3.80
2019-01-29T01:15:55.364Z,3.81
2019-01-29T01:18:46.341Z,3.87
2019-01-29T01:21:36.724Z,3.81
2019-01-29T01:24:26.688Z,3.73
2019-01-29T01:27:16.798Z,3.63
2019-01-29T01:30:09.868Z,3.62
2019-01-29T01:32:59.342Z,3.55
2019-01-29T01:35:49.592Z,3.48
2019-01-29T01:38:39.670Z,3.45
2019-01-29T01:41:29.489Z,3.48
2019-01-29T01:44:19.263Z,3.43
2019-01-29T01:47:09.021Z,3.40
2019-01-29T01:49:58.911Z,3.40
2019-01-29T01:52:48.754Z,3.34
2019-01-29T01:55:38.971Z,3.35
2019-01-29T01:58:28.906Z,3.32
2019-01-29T02:01:18.908Z,3.33
2019-01-29T02:04:08.752Z,3.35
2019-01-29T02:06:58.572Z,3.36
2019-01-29T02:09:48.314Z,3.30
2019-01-29T02:12:38.664Z,3.33
2019-01-29T02:15:28.914Z,3.28
2019-01-29T02:18:18.722Z,3.28
2019-01-29T02:21:08.783Z,3.30
2019-01-29T02:23:59.046Z,3.31
2019-01-29T02:26:49.206Z,3.30
2019-01-29T02:29:38.636Z,3.29
2019-01-29T02:32:28.543Z,3.28
2019-01-29T02:35:18.597Z,3.30
2019-01-29T02:38:08.669Z,3.31
2019-01-29T02:40:59.034Z,3.31
2019-01-29T02:43:48.223Z,3.34
2019-01-29T02:46:38.391Z,3.34
2019-01-29T02:49:28.402Z,3.35
2019-01-29T02:52:18.740Z,3.37
2019-01-29T02:55:11.078Z,3.35
2019-01-29T02:58:01.017Z,3.39
2019-01-29T03:00:51.093Z,3.39
2019-01-29T03:03:40.542Z,3.42
2019-01-29T03:06:30.320Z,3.39
2019-01-29T03:09:20.433Z,3.43
2019-01-29T03:12:10.404Z,3.42
2019-01-29T03:15:00.723Z,3.45
2019-01-29T03:17:50.691Z,3.45
2019-01-29T03:20:40.479Z,3.47
2019-01-29T03:23:30.102Z,3.47
2019-01-29T03:26:19.918Z,3.46
2019-01-29T03:29:09.918Z,3.48
2019-01-29T03:31:59.710Z,3.45
2019-01-29T03:34:49.963Z,3.48
2019-01-29T03:37:40.315Z,3.47
2019-01-29T03:40:30.485Z,3.49
2019-01-29T03:43:20.309Z,3.52
2019-01-29T03:46:09.832Z,3.55
2019-01-29T03:48:59.567Z,3.56
2019-01-29T03:51:49.508Z,3.54
2019-01-29T03:54:39.635Z,3.57
2019-01-29T03:57:29.588Z,3.56
2019-01-29T04:00:25.720Z,3.54
2019-01-29T04:03:15.579Z,3.60
2019-01-29T04:06:05.260Z,3.60
2019-01-29T04:08:55.527Z,3.61
2019-01-29T04:11:45.818Z,3.60
2019-01-29T04:14:35.599Z,3.57
2019-01-29T04:17:25.491Z,3.59
2019-01-29T04:20:19.130Z,3.58
2019-01-29T04:23:08.913Z,3.58
2019-01-29T04:25:58.561Z,3.57
2019-01-29T04:28:48.729Z,3.56
2019-01-29T04:31:38.777Z,3.54
2019-01-29T04:34:31.227Z,3.53
2019-01-29T04:37:21.163Z,3.51
2019-01-29T04:40:14.037Z,3.57
2019-01-29T04:43:03.832Z,3.55
2019-01-29T04:45:54.001Z,3.53
2019-01-29T04:48:44.417Z,3.54
2019-01-29T04:51:35.179Z,3.53
2019-01-29T04:54:24.890Z,3.52
2019-01-29T04:57:15.964Z,3.50
2019-01-29T05:00:08.785Z,3.48
2019-01-29T05:02:58.499Z,3.47
2019-01-29T05:05:48.621Z,3.47
2019-01-29T05:08:38.417Z,3.48
2019-01-29T05:11:28.227Z,3.50
2019-01-29T05:14:17.789Z,3.49
2019-01-29T05:17:07.914Z,3.49
2019-01-29T05:19:57.527Z,3.48
2019-01-29T05:22:47.303Z,3.50
2019-01-29T05:25:38.077Z,3.48
2019-01-29T05:28:28.041Z,3.45
2019-01-29T05:31:18.175Z,3.47
2019-01-29T05:34:07.931Z,3.47
2019-01-29T05:36:58.099Z,3.46
2019-01-29T05:39:48.412Z,3.45
2019-01-29T05:42:38.049Z,3.47
2019-01-29T05:45:27.771Z,3.46
2019-01-29T05:48:17.771Z,3.46
2019-01-29T05:51:07.875Z,3.48
2019-01-29T05:53:57.284Z,3.50
2019-01-29T05:56:47.534Z,3.51
2019-01-29T05:59:38.026Z,3.50
2019-01-29T06:02:27.842Z,3.47
2019-01-29T06:05:18.514Z,3.52
2019-01-29T06:08:08.183Z,3.53
2019-01-29T06:10:59.179Z,3.57
2019-01-29T06:13:48.739Z,3.60
2019-01-29T06:16:38.705Z,3.62
2019-01-29T06:19:28.998Z,3.60
2019-01-29T06:22:18.814Z,3.64
2019-01-29T06:25:08.908Z,3.62
2019-01-29T06:27:59.227Z,3.65
2019-01-29T06:30:49.130Z,3.64
2019-01-29T06:33:38.963Z,3.65
2019-01-29T06:36:28.827Z,3.67
2019-01-29T06:39:19.004Z,3.72
2019-01-29T06:42:08.520Z,3.75
2019-01-29T06:44:58.235Z,3.77
2019-01-29T06:47:47.893Z,3.78
2019-01-29T06:50:38.054Z,3.82
2019-01-29T06:53:28.168Z,3.83
2019-01-29T06:56:18.320Z,3.84
2019-01-29T06:59:08.327Z,3.89
2019-01-29T07:01:58.066Z,3.92
2019-01-29T07:04:47.867Z,3.91
2019-01-29T07:07:37.355Z,3.94
2019-01-29T07:10:27.959Z,3.96
2019-01-29T07:13:17.947Z,3.95
2019-01-29T07:16:25.610Z,3.93
2019-01-29T07:19:23.255Z,3.93
2019-01-29T07:22:13.060Z,3.96
2019-01-29T07:25:03.000Z,3.98
2019-01-29T07:27:52.942Z,3.98
2019-01-29T07:30:43.127Z,3.99
2019-01-29T07:33:33.036Z,4.03
2019-01-29T07:36:22.771Z,4.01
2019-01-29T07:39:13.647Z,4.04
2019-01-29T07:42:03.471Z,4.07
2019-01-29T07:44:53.519Z,4.13
2019-01-29T07:47:43.419Z,4.18
2019-01-29T07:50:33.111Z,4.22
2019-01-29T07:53:23.225Z,4.23
2019-01-29T07:56:12.902Z,4.24
2019-01-29T07:59:02.353Z,4.25
2019-01-29T08:01:51.837Z,4.27
2019-01-29T08:04:41.737Z,4.28
2019-01-29T08:07:31.975Z,4.29
2019-01-29T08:10:21.893Z,4.21
2019-01-29T08:13:12.224Z,4.22
2019-01-29T08:16:02.513Z,4.22
2019-01-29T08:18:52.672Z,4.22
2019-01-29T08:21:42.224Z,4.26
2019-01-29T08:24:32.195Z,4.29
2019-01-29T08:27:22.084Z,4.35
2019-01-29T08:30:12.620Z,4.39
2019-01-29T08:33:02.200Z,4.44
2019-01-29T08:35:52.225Z,4.52
2019-01-29T08:38:42.537Z,4.53
2019-01-29T08:41:32.815Z,4.57
2019-01-29T08:44:22.371Z,4.66
2019-01-29T08:47:12.583Z,4.75
2019-01-29T08:50:02.733Z,4.95
2019-01-29T08:52:54.261Z,5.18
2019-01-29T08:55:43.935Z,5.32
2019-01-29T08:58:34.006Z,5.43
2019-01-29T09:01:24.317Z,5.47
2019-01-29T09:04:14.505Z,5.49
2019-01-29T09:07:08.409Z,5.47
2019-01-29T09:09:58.287Z,5.41
2019-01-29T09:12:48.663Z,5.35
2019-01-29T09:15:38.774Z,5.33
2019-01-29T09:18:29.247Z,5.28
2019-01-29T09:21:19.004Z,5.21
2019-01-29T09:24:09.171Z,5.21
2019-01-29T09:26:59.399Z,5.20
2019-01-29T09:29:50.406Z,5.18
2019-01-29T09:32:40.127Z,5.27
2019-01-29T09:35:30.388Z,5.29
2019-01-29T09:38:20.621Z,5.37
2019-01-29T09:41:10.911Z,5.34
2019-01-29T09:44:00.997Z,5.40
2019-01-29T09:46:51.079Z,5.47
2019-01-29T09:49:40.827Z,5.50
2019-01-29T09:52:30.954Z,5.54
2019-01-29T09:55:28.937Z,5.57
2019-01-29T09:58:14.371Z,5.60
2019-01-29T10:01:04.579Z,5.65
2019-01-29T10:03:54.700Z,5.62
2019-01-29T10:06:44.295Z,5.68
2019-01-29T10:09:34.797Z,5.64
2019-01-29T10:12:25.095Z,5.64
2019-01-29T10:15:20.018Z,5.70
2019-01-29T10:18:09.869Z,5.71
2019-01-29T10:21:00.058Z,5.76
2019-01-29T10:23:49.942Z,5.80
2019-01-29T10:26:39.824Z,5.83
2019-01-29T10:29:29.638Z,5.82
2019-01-29T10:32:19.625Z,5.82
2019-01-29T10:35:13.386Z,5.85
2019-01-29T10:38:03.176Z,5.81
2019-01-29T10:40:53.262Z,5.85
2019-01-29T10:43:42.833Z,5.91
2019-01-29T10:46:33.071Z,5.94
2019-01-29T10:49:22.529Z,5.93
2019-01-29T10:52:12.639Z,5.96
2019-01-29T10:55:02.550Z,6.01
2019-01-29T10:57:52.946Z,6.04
2019-01-29T11:00:43.137Z,6.05
2019-01-29T11:03:33.644Z,6.06
2019-01-29T11:06:24.099Z,6.08
2019-01-29T11:09:14.797Z,6.12
2019-01-29T11:12:05.161Z,6.18
2019-01-29T11:14:55.133Z,6.25
2019-01-29T11:17:45.253Z,6.33
2019-01-29T11:20:35.434Z,6.44
2019-01-29T11:23:25.725Z,6.54
2019-01-29T11:26:17.038Z,6.59
2019-01-29T11:29:07.840Z,6.69
2019-01-29T11:31:57.851Z,6.71
2019-01-29T11:34:47.931Z,6.82
2019-01-29T11:37:37.737Z,6.84
2019-01-29T11:40:29.872Z,6.90
2019-01-29T11:43:19.891Z,6.95
2019-01-29T11:46:10.366Z,6.99
2019-01-29T11:49:00.341Z,7.03
2019-01-29T11:51:50.399Z,7.11
2019-01-29T11:54:40.013Z,7.18
2019-01-29T11:57:29.842Z,7.19
2019-01-29T12:00:30.357Z,7.18
2019-01-29T12:03:20.458Z,7.05
2019-01-29T12:06:10.478Z,7.05
2019-01-29T12:09:00.203Z,7.10
2019-01-29T12:11:50.451Z,7.11
2019-01-29T12:14:40.614Z,7.03
2019-01-29T12:17:30.294Z,7.02
2019-01-29T12:20:20.506Z,7.01
2019-01-29T12:23:10.607Z,6.99
2019-01-29T12:26:00.994Z,7.01
2019-01-29T12:28:51.035Z,7.06
2019-01-29T12:31:41.215Z,7.09
2019-01-29T12:34:31.204Z,7.18
2019-01-29T12:37:20.880Z,7.24
2019-01-29T12:40:11.026Z,7.31
2019-01-29T12:43:01.009Z,7.36
2019-01-29T12:45:50.867Z,7.48
2019-01-29T12:48:40.903Z,7.54
2019-01-29T12:51:47.862Z,7.60
2019-01-29T12:54:37.894Z,7.63
2019-01-29T12:57:27.969Z,7.63
2019-01-29T13:00:19.070Z,7.68
2019-01-29T13:03:09.649Z,7.67
2019-01-29T13:05:59.857Z,7.72
2019-01-29T13:08:49.536Z,7.76
2019-01-29T13:11:39.678Z,7.80
2019-01-29T13:14:29.231Z,7.75
2019-01-29T13:17:19.500Z,7.74
2019-01-29T13:20:11.433Z,7.78
2019-01-29T13:23:02.827Z,7.80
2019-01-29T13:25:52.993Z,7.78
2019-01-29T13:28:42.253Z,7.80
2019-01-29T13:31:31.762Z,7.84
2019-01-29T13:34:22.305Z,7.86
2019-01-29T13:37:12.083Z,7.83
2019-01-29T13:40:02.339Z,7.86
2019-01-29T13:42:52.934Z,7.88
2019-01-29T13:45:43.271Z,7.87
2019-01-29T13:48:33.284Z,7.87
2019-01-29T13:51:23.213Z,7.83
2019-01-29T13:54:12.945Z,7.86
2019-01-29T13:57:03.017Z,7.89
2019-01-29T13:59:53.183Z,7.88
2019-01-29T14:02:43.313Z,7.89
2019-01-29T14:05:33.203Z,7.87
2019-01-29T14:08:23.215Z,7.84
2019-01-29T14:11:13.541Z,7.76
2019-01-29T14:14:03.441Z,7.72
2019-01-29T14:16:53.138Z,7.67
2019-01-29T14:19:43.192Z,7.67
2019-01-29T14:22:32.955Z,7.68
2019-01-29T14:25:22.684Z,7.67
2019-01-29T14:28:12.906Z,7.64
2019-01-29T14:31:02.863Z,7.55
2019-01-29T14:33:52.949Z,7.46
2019-01-29T14:36:42.836Z,7.37
2019-01-29T14:40:14.803Z,7.34
2019-01-29T14:43:05.655Z,7.27
2019-01-29T14:45:55.333Z,7.23
2019-01-29T14:48:45.590Z,7.15
2019-01-29T14:51:35.985Z,7.06
2019-01-29T14:54:25.861Z,7.05
2019-01-29T14:57:15.981Z,7.06
2019-01-29T15:00:16.664Z,7.01
2019-01-29T15:03:06.569Z,6.95
2019-01-29T15:05:56.359Z,6.94
2019-01-29T15:08:46.783Z,6.94
2019-01-29T15:11:37.212Z,6.92
2019-01-29T15:14:27.057Z,6.92
2019-01-29T15:17:38.564Z,6.86
2019-01-29T15:20:28.650Z,6.84
2019-01-29T15:23:18.634Z,6.76
2019-01-29T15:26:08.517Z,6.71
2019-01-29T15:28:58.586Z,6.62
2019-01-29T15:31:49.102Z,6.57
2019-01-29T15:34:38.688Z,6.51
2019-01-29T15:37:28.444Z,6.39
2019-01-29T15:40:18.893Z,6.35
2019-01-29T15:43:08.741Z,6.21
2019-01-29T15:45:58.626Z,6.18
2019-01-29T15:48:48.528Z,6.13
2019-01-29T15:51:38.183Z,6.01
2019-01-29T15:54:28.019Z,5.95
2019-01-29T15:57:17.835Z,5.90
2019-01-29T16:00:19.541Z,5.82
2019-01-29T16:03:09.990Z,5.77
2019-01-29T16:05:59.955Z,5.71
2019-01-29T16:08:49.763Z,5.66
2019-01-29T16:11:39.586Z,5.60
2019-01-29T16:14:29.742Z,5.55
2019-01-29T16:17:19.479Z,5.47
2019-01-29T16:20:12.806Z,5.39
2019-01-29T16:23:02.729Z,5.35
2019-01-29T16:25:52.719Z,5.28
2019-01-29T16:28:42.743Z,5.22
2019-01-29T16:31:32.529Z,5.12
2019-01-29T16:34:22.804Z,5.01
2019-01-29T16:37:12.585Z,4.95
2019-01-29T16:40:03.209Z,4.89
2019-01-29T16:42:52.974Z,4.82
2019-01-29T16:45:43.169Z,4.81
2019-01-29T16:48:33.059Z,4.77
2019-01-29T16:51:23.298Z,4.75
2019-01-29T16:54:13.386Z,4.67
2019-01-29T16:57:03.138Z,4.66
2019-01-29T16:59:52.895Z,4.63
2019-01-29T17:02:42.735Z,4.55
2019-01-29T17:05:32.869Z,4.53
2019-01-29T17:08:22.492Z,4.48
2019-01-29T17:11:12.101Z,4.42
2019-01-29T17:14:02.431Z,4.40
2019-01-29T17:16:52.227Z,4.34
2019-01-29T17:19:42.014Z,4.28
2019-01-29T17:22:32.393Z,4.22
2019-01-29T17:25:22.152Z,4.18
2019-01-29T17:28:11.971Z,4.14
2019-01-29T17:31:02.032Z,4.09
2019-01-29T17:33:52.170Z,4.03
2019-01-29T17:36:42.462Z,4.00
2019-01-29T17:39:32.383Z,3.95
2019-01-29T17:42:21.657Z,3.93
2019-01-29T17:45:15.190Z,3.92
2019-01-29T17:48:05.944Z,3.92
2019-01-29T17:50:56.627Z,3.90
2019-01-29T17:53:46.487Z,3.92
2019-01-29T17:56:36.762Z,3.88
2019-01-29T17:59:26.776Z,3.81
2019-01-29T18:02:16.381Z,3.77
2019-01-29T18:05:07.635Z,3.75
2019-01-29T18:07:57.729Z,3.67
2019-01-29T18:10:47.747Z,3.67
2019-01-29T18:13:37.957Z,3.60
2019-01-29T18:16:27.829Z,3.54
2019-01-29T18:19:17.859Z,3.54
2019-01-29T18:22:08.105Z,3.50
2019-01-29T18:24:58.229Z,3.47
2019-01-29T18:27:48.247Z,3.43
2019-01-29T18:30:39.288Z,3.39
2019-01-29T18:33:28.772Z,3.34
2019-01-29T18:36:18.615Z,3.31
2019-01-29T18:39:10.091Z,3.27
2019-01-29T18:41:59.993Z,3.23
2019-01-29T18:44:49.621Z,3.21
2019-01-29T18:47:39.720Z,3.18
2019-01-29T18:50:28.916Z,3.12
2019-01-29T18:53:19.221Z,3.07
2019-01-29T18:56:09.484Z,3.09
2019-01-29T18:58:59.482Z,3.10
2019-01-29T19:01:49.622Z,3.10
2019-01-29T19:04:39.241Z,3.08
2019-01-29T19:07:29.108Z,3.06
2019-01-29T19:10:19.491Z,3.08
2019-01-29T19:13:09.616Z,3.02
2019-01-29T19:15:59.674Z,3.03
2019-01-29T19:18:49.236Z,3.05
2019-01-29T19:21:39.320Z,3.06
2019-01-29T19:24:29.302Z,3.05
2019-01-29T19:27:18.610Z,3.02
2019-01-29T19:30:17.193Z,3.00
2019-01-29T19:33:07.453Z,3.00
2019-01-29T19:35:57.367Z,2.98
2019-01-29T19:38:47.057Z,2.95
2019-01-29T19:41:36.245Z,2.98
2019-01-29T19:44:25.878Z,2.95
2019-01-29T19:47:15.676Z,2.94
2019-01-29T19:50:09.434Z,2.94
2019-01-29T19:52:59.398Z,2.92
2019-01-29T19:55:49.577Z,2.93
2019-01-29T19:58:39.419Z,2.89
2019-01-29T20:01:30.823Z,2.90
2019-01-29T20:04:22.133Z,2.89
2019-01-29T20:07:12.064Z,2.89
2019-01-29T20:10:02.069Z,2.86
2019-01-29T20:12:52.155Z,2.83
2019-01-29T20:15:41.618Z,2.84
2019-01-29T20:18:31.424Z,2.78
2019-01-29T20:21:21.241Z,2.83
2019-01-29T20:24:11.399Z,2.81
2019-01-29T20:27:01.314Z,2.82
2019-01-29T20:29:51.629Z,2.81
2019-01-29T20:32:42.083Z,2.80
2019-01-29T20:35:31.692Z,2.78
2019-01-29T20:38:22.781Z,2.78
2019-01-29T20:41:12.536Z,2.77
2019-01-29T20:44:02.464Z,2.75
2019-01-29T20:46:51.814Z,2.76
2019-01-29T20:49:41.341Z,2.75
2019-01-29T20:52:31.119Z,2.74
2019-01-29T20:55:20.641Z,2.70
2019-01-29T20:58:10.353Z,2.69
2019-01-29T21:00:59.941Z,2.66
2019-01-29T21:03:51.251Z,2.61
2019-01-29T21:06:41.481Z,2.60
2019-01-29T21:09:33.289Z,2.56
2019-01-29T21:12:23.561Z,2.58
2019-01-29T21:15:15.968Z,2.55
2019-01-29T21:18:06.380Z,2.57
2019-01-29T21:20:57.264Z,2.56
2019-01-29T21:23:49.125Z,2.58
2019-01-29T21:26:39.719Z,2.58
2019-01-29T21:29:30.258Z,2.59
2019-01-29T21:32:20.283Z,2.59
2019-01-29T21:35:10.677Z,2.51
2019-01-29T21:38:00.781Z,2.57
2019-01-29T21:40:50.720Z,2.57
2019-01-29T21:43:40.923Z,2.53
2019-01-29T21:46:30.785Z,2.55
2019-01-29T21:49:20.655Z,2.58
2019-01-29T21:52:11.205Z,2.57
2019-01-29T21:55:01.186Z,2.56
2019-01-29T21:57:51.722Z,2.56
2019-01-29T22:00:46.497Z,2.56
2019-01-29T22:03:36.515Z,2.56
2019-01-29T22:06:26.806Z,2.53
2019-01-29T22:09:16.316Z,2.52
2019-01-29T22:12:05.910Z,2.50
2019-01-29T22:14:55.638Z,2.48
2019-01-29T22:17:45.660Z,2.50
2019-01-29T22:20:35.674Z,2.50
2019-01-29T22:23:25.971Z,2.50
2019-01-29T22:26:17.148Z,2.46
2019-01-29T22:29:07.384Z,2.46
2019-01-29T22:31:57.451Z,2.47
2019-01-29T22:34:47.552Z,2.46
2019-01-29T22:37:37.404Z,2.41
2019-01-29T22:40:28.754Z,2.41
2019-01-29T22:43:18.738Z,2.38
2019-01-29T22:46:08.451Z,2.38
2019-01-29T22:48:58.040Z,2.36
2019-01-29T22:51:49.124Z,2.36
2019-01-29T22:54:38.390Z,2.32
2019-01-29T22:57:28.593Z,2.29
2019-01-29T23:00:49.712Z,2.27
2019-01-29T23:03:44.897Z,2.24
2019-01-29T23:07:11.523Z,2.20
2019-01-29T23:10:00.863Z,2.20
2019-01-29T23:12:52.334Z,2.14
2019-01-29T23:15:42.651Z,2.13
2019-01-29T23:18:32.694Z,2.14
2019-01-29T23:21:22.669Z,2.12
2019-01-29T23:24:12.004Z,2.07
2019-01-29T23:27:02.143Z,2.08
2019-01-29T23:29:52.328Z,2.05
2019-01-29T23:32:42.544Z,1.96
2019-01-29T23:35:32.687Z,2.03
2019-01-29T23:38:22.938Z,2.02
2019-01-29T23:41:12.919Z,2.05
2019-01-29T23:44:02.874Z,2.06
2019-01-29T23:46:52.254Z,2.08
2019-01-29T23:49:54.274Z,2.08
2019-01-29T23:52:45.921Z,2.06
2019-01-29T23:55:36.024Z,2.09
2019-01-29T23:58:26.044Z,2.07
